createdAt,value
2023-04-05T00:00:59.872Z,92879.00
2023-04-05T00:01:59.911Z,92877.00
2023-04-05T00:03:00.067Z,92873.00
2023-04-05T00:04:00.096Z,92873.00
2023-04-05T00:05:00.135Z,92871.00
2023-04-05T00:06:00.156Z,92871.00
2023-04-05T00:07:00.205Z,92871.00
2023-04-05T00:08:00.182Z,92871.00
2023-04-05T00:09:00.219Z,92873.00
2023-04-05T00:10:00.275Z,92873.00
2023-04-05T00:11:00.306Z,92869.00
2023-04-05T00:12:00.347Z,92875.00
2023-04-05T00:13:00.416Z,92873.00
2023-04-05T00:14:00.438Z,92873.00
2023-04-05T00:15:00.462Z,92871.00
2023-04-05T00:16:00.543Z,92873.00
2023-04-05T00:17:00.519Z,92875.00
2023-04-05T00:18:00.603Z,92877.00
2023-04-05T00:19:00.603Z,92875.00
2023-04-05T00:20:00.649Z,92875.00
2023-04-05T00:21:00.665Z,92875.00
2023-04-05T00:22:00.717Z,92873.00
2023-04-05T00:23:00.750Z,92875.00
2023-04-05T00:24:00.780Z,92871.00
2023-04-05T00:25:00.807Z,92873.00
2023-04-05T00:26:00.845Z,92877.00
2023-04-05T00:27:00.922Z,92875.00
2023-04-05T00:28:00.954Z,92877.00
2023-04-05T00:29:01.010Z,92875.00
2023-04-05T00:30:01.380Z,92873.00
2023-04-05T00:31:01.075Z,92875.00
2023-04-05T00:32:01.154Z,92875.00
2023-04-05T00:33:01.223Z,92873.00
2023-04-05T00:34:01.215Z,92873.00
2023-04-05T00:35:01.277Z,92873.00
2023-04-05T00:36:01.309Z,92873.00
2023-04-05T00:37:01.303Z,92873.00
2023-04-05T00:38:01.357Z,92873.00
2023-04-05T00:39:01.394Z,92873.00
2023-04-05T00:40:01.441Z,92873.00
2023-04-05T00:41:01.469Z,92873.00
2023-04-05T00:42:01.512Z,92869.00
2023-04-05T00:43:01.514Z,92869.00
2023-04-05T00:44:01.532Z,92873.00
2023-04-05T00:45:01.565Z,92873.00
2023-04-05T00:46:01.663Z,92869.00
2023-04-05T00:47:01.632Z,92869.00
2023-04-05T00:48:01.742Z,92869.00
2023-04-05T00:49:01.716Z,92869.00
2023-04-05T00:50:01.743Z,92869.00
2023-04-05T00:51:01.820Z,92865.00
2023-04-05T00:52:01.804Z,92867.00
2023-04-05T00:53:01.854Z,92865.00
2023-04-05T00:54:01.858Z,92865.00
2023-04-05T00:55:01.889Z,92863.00
2023-04-05T00:56:01.924Z,92863.00
2023-04-05T00:57:01.885Z,92861.00
2023-04-05T00:58:01.881Z,92861.00
2023-04-05T00:59:01.935Z,92861.00
2023-04-05T01:00:01.925Z,92859.00
2023-04-05T01:01:01.966Z,92861.00
2023-04-05T01:02:01.951Z,92855.00
2023-04-05T01:03:02.020Z,92859.00
2023-04-05T01:04:01.972Z,92853.00
2023-04-05T01:05:01.974Z,92855.00
2023-04-05T01:06:01.951Z,92855.00
2023-04-05T01:07:01.962Z,92853.00
2023-04-05T01:08:01.965Z,92853.00
2023-04-05T01:09:01.973Z,92853.00
2023-04-05T01:10:01.976Z,92855.00
2023-04-05T01:11:01.997Z,92853.00
2023-04-05T01:12:02.021Z,92853.00
2023-04-05T01:13:02.073Z,92853.00
2023-04-05T01:14:02.069Z,92853.00
2023-04-05T01:15:02.162Z,92851.00
2023-04-05T01:16:02.243Z,92851.00
2023-04-05T01:17:02.132Z,92849.00
2023-04-05T01:18:02.273Z,92851.00
2023-04-05T01:19:02.177Z,92849.00
2023-04-05T01:20:02.181Z,92851.00
2023-04-05T01:21:02.193Z,92847.00
2023-04-05T01:22:02.193Z,92847.00
2023-04-05T01:23:02.199Z,92845.00
2023-04-05T01:24:02.246Z,92843.00
2023-04-05T01:25:02.218Z,92843.00
2023-04-05T01:26:02.802Z,92843.00
2023-04-05T01:27:02.239Z,92845.00
2023-04-05T01:28:02.246Z,92843.00
2023-04-05T01:29:02.284Z,92836.00
2023-04-05T01:30:02.322Z,92836.00
2023-04-05T01:31:02.358Z,92836.00
2023-04-05T01:32:02.457Z,92836.00
2023-04-05T01:33:02.463Z,92836.00
2023-04-05T01:34:02.405Z,92836.00
2023-04-05T01:35:02.395Z,92836.00
2023-04-05T01:36:02.431Z,92836.00
2023-04-05T01:37:02.426Z,92836.00
2023-04-05T01:38:02.427Z,92836.00
2023-04-05T01:39:02.441Z,92836.00
2023-04-05T01:40:02.465Z,92836.00
2023-04-05T01:41:02.464Z,92836.00
2023-04-05T01:42:02.486Z,92836.00
2023-04-05T01:43:02.531Z,92834.00
2023-04-05T01:44:02.442Z,92836.00
2023-04-05T01:45:02.423Z,92843.00
2023-04-05T01:46:02.455Z,92843.00
2023-04-05T01:47:02.432Z,92836.00
2023-04-05T01:48:03.375Z,92834.00
2023-04-05T01:49:02.408Z,92836.00
2023-04-05T01:50:02.385Z,92836.00
2023-04-05T01:51:02.398Z,92836.00
2023-04-05T01:52:02.411Z,92836.00
2023-04-05T01:53:02.382Z,92845.00
2023-04-05T01:54:02.367Z,92836.00
2023-04-05T01:55:02.347Z,92843.00
2023-04-05T01:56:02.320Z,92843.00
2023-04-05T01:57:02.320Z,92836.00
2023-04-05T01:58:02.357Z,92836.00
2023-04-05T01:59:02.288Z,92836.00
2023-04-05T02:00:02.234Z,92836.00
2023-04-05T02:01:02.245Z,92836.00
2023-04-05T02:02:02.232Z,92834.00
2023-04-05T02:03:02.317Z,92830.00
2023-04-05T02:04:02.268Z,92834.00
2023-04-05T02:05:02.271Z,92832.00
2023-04-05T02:06:02.255Z,92832.00
2023-04-05T02:07:02.268Z,92828.00
2023-04-05T02:08:02.265Z,92832.00
2023-04-05T02:09:02.450Z,92832.00
2023-04-05T02:10:02.293Z,92826.00
2023-04-05T02:11:02.279Z,92832.00
2023-04-05T02:12:02.317Z,92830.00
2023-04-05T02:13:02.244Z,92824.00
2023-04-05T02:14:02.254Z,92822.00
2023-04-05T02:15:02.225Z,92820.00
2023-04-05T02:16:02.233Z,92820.00
2023-04-05T02:17:02.155Z,92818.00
2023-04-05T02:18:02.333Z,92822.00
2023-04-05T02:19:02.132Z,92820.00
2023-04-05T02:20:02.127Z,92820.00
2023-04-05T02:21:02.081Z,92820.00
2023-04-05T02:22:02.894Z,92818.00
2023-04-05T02:23:02.103Z,92818.00
2023-04-05T02:24:02.067Z,92820.00
2023-04-05T02:25:02.038Z,92818.00
2023-04-05T02:26:02.024Z,92812.00
2023-04-05T02:27:02.011Z,92814.00
2023-04-05T02:28:01.961Z,92810.00
2023-04-05T02:29:01.960Z,92812.00
2023-04-05T02:30:01.948Z,92812.00
2023-04-05T02:31:01.941Z,92812.00
2023-04-05T02:32:01.923Z,92812.00
2023-04-05T02:33:01.940Z,92810.00
2023-04-05T02:34:01.864Z,92808.00
2023-04-05T02:35:01.863Z,92808.00
2023-04-05T02:36:01.900Z,92808.00
2023-04-05T02:37:01.908Z,92806.00
2023-04-05T02:38:01.915Z,92804.00
2023-04-05T02:39:01.829Z,92804.00
2023-04-05T02:40:01.819Z,92804.00
2023-04-05T02:41:01.801Z,92804.00
2023-04-05T02:42:01.789Z,92802.00
2023-04-05T02:43:01.771Z,92802.00
2023-04-05T02:44:01.772Z,92800.00
2023-04-05T02:45:01.794Z,92802.00
2023-04-05T02:46:01.814Z,92800.00
2023-04-05T02:47:01.730Z,92798.00
2023-04-05T02:48:01.820Z,92798.00
2023-04-05T02:49:01.683Z,92798.00
2023-04-05T02:50:01.671Z,92798.00
2023-04-05T02:51:01.678Z,92798.00
2023-04-05T02:52:01.683Z,92796.00
2023-04-05T02:53:01.679Z,92798.00
2023-04-05T02:54:01.686Z,92798.00
2023-04-05T02:55:01.704Z,92800.00
2023-04-05T02:56:01.718Z,92798.00
2023-04-05T02:57:01.728Z,92796.00
2023-04-05T02:58:01.836Z,92798.00
2023-04-05T02:59:01.801Z,92796.00
2023-04-05T03:00:01.815Z,92796.00
2023-04-05T03:01:01.889Z,92796.00
2023-04-05T03:02:01.764Z,92798.00
2023-04-05T03:03:01.824Z,92798.00
2023-04-05T03:04:01.817Z,92794.00
2023-04-05T03:05:01.752Z,92796.00
2023-04-05T03:06:01.762Z,92794.00
2023-04-05T03:07:01.766Z,92796.00
2023-04-05T03:08:01.779Z,92792.00
2023-04-05T03:09:01.765Z,92794.00
2023-04-05T03:10:01.807Z,92792.00
2023-04-05T03:11:01.743Z,92794.00
2023-04-05T03:12:01.741Z,92790.00
2023-04-05T03:13:01.733Z,92792.00
2023-04-05T03:14:01.760Z,92790.00
2023-04-05T03:15:01.710Z,92790.00
2023-04-05T03:16:01.743Z,92789.00
2023-04-05T03:17:01.835Z,92790.00
2023-04-05T03:18:01.783Z,92790.00
2023-04-05T03:19:01.750Z,92789.00
2023-04-05T03:20:01.753Z,92789.00
2023-04-05T03:21:01.885Z,92789.00
2023-04-05T03:22:01.793Z,92789.00
2023-04-05T03:23:01.756Z,92790.00
2023-04-05T03:24:01.818Z,92785.00
2023-04-05T03:25:01.861Z,92787.00
2023-04-05T03:26:01.818Z,92789.00
2023-04-05T03:27:01.703Z,92789.00
2023-04-05T03:28:01.739Z,92789.00
2023-04-05T03:29:01.669Z,92789.00
2023-04-05T03:30:01.662Z,92789.00
2023-04-05T03:31:01.667Z,92789.00
2023-04-05T03:32:01.609Z,92789.00
2023-04-05T03:33:01.681Z,92789.00
2023-04-05T03:34:01.571Z,92789.00
2023-04-05T03:35:01.552Z,92789.00
2023-04-05T03:36:01.544Z,92785.00
2023-04-05T03:37:01.498Z,92787.00
2023-04-05T03:38:01.474Z,92787.00
2023-04-05T03:39:01.442Z,92787.00
2023-04-05T03:40:01.433Z,92783.00
2023-04-05T03:41:01.391Z,92785.00
2023-04-05T03:42:01.376Z,92781.00
2023-04-05T03:43:01.349Z,92781.00
2023-04-05T03:44:01.317Z,92779.00
2023-04-05T03:45:01.299Z,92781.00
2023-04-05T03:46:01.315Z,92779.00
2023-04-05T03:47:01.246Z,92779.00
2023-04-05T03:48:01.357Z,92781.00
2023-04-05T03:49:01.201Z,92779.00
2023-04-05T03:50:01.176Z,92779.00
2023-04-05T03:51:01.220Z,92779.00
2023-04-05T03:52:01.107Z,92777.00
2023-04-05T03:53:01.079Z,92779.00
2023-04-05T03:54:01.054Z,92779.00
2023-04-05T03:55:01.032Z,92779.00
2023-04-05T03:56:01.033Z,92775.00
2023-04-05T03:57:00.976Z,92777.00
2023-04-05T03:58:00.966Z,92777.00
2023-04-05T03:59:00.982Z,92777.00
2023-04-05T04:00:01.081Z,92777.00
2023-04-05T04:01:00.886Z,92773.00
2023-04-05T04:02:00.985Z,92775.00
2023-04-05T04:03:01.088Z,92773.00
2023-04-05T04:04:00.814Z,92775.00
2023-04-05T04:05:00.817Z,92775.00
2023-04-05T04:06:00.830Z,92775.00
2023-04-05T04:07:00.740Z,92775.00
2023-04-05T04:08:00.715Z,92775.00
2023-04-05T04:09:00.689Z,92775.00
2023-04-05T04:10:00.675Z,92775.00
2023-04-05T04:11:00.637Z,92773.00
2023-04-05T04:12:00.611Z,92773.00
2023-04-05T04:13:00.646Z,92771.00
2023-04-05T04:14:00.568Z,92773.00
2023-04-05T04:15:00.566Z,92771.00
2023-04-05T04:16:00.586Z,92771.00
2023-04-05T04:17:00.555Z,92769.00
2023-04-05T04:18:00.624Z,92769.00
2023-04-05T04:19:01.369Z,92769.00
2023-04-05T04:20:00.471Z,92769.00
2023-04-05T04:21:00.436Z,92769.00
2023-04-05T04:22:00.398Z,92769.00
2023-04-05T04:23:00.378Z,92767.00
2023-04-05T04:24:00.353Z,92769.00
2023-04-05T04:25:00.871Z,92767.00
2023-04-05T04:26:00.312Z,92767.00
2023-04-05T04:27:00.326Z,92763.00
2023-04-05T04:28:00.285Z,92765.00
2023-04-05T04:29:00.264Z,92765.00
2023-04-05T04:30:00.249Z,92767.00
2023-04-05T04:31:00.239Z,92767.00
2023-04-05T04:32:00.286Z,92765.00
2023-04-05T04:33:00.257Z,92765.00
2023-04-05T04:34:00.153Z,92767.00
2023-04-05T04:35:00.152Z,92765.00
2023-04-05T04:36:00.244Z,92767.00
2023-04-05T04:37:00.095Z,92767.00
2023-04-05T04:38:00.090Z,92767.00
2023-04-05T04:39:00.131Z,92767.00
2023-04-05T04:40:00.057Z,92767.00
2023-04-05T04:41:00.135Z,92767.00
2023-04-05T04:42:00.007Z,92765.00
2023-04-05T04:43:00.031Z,92767.00
2023-04-05T04:43:59.962Z,92763.00
2023-04-05T04:44:59.953Z,92767.00
2023-04-05T04:45:59.966Z,92765.00
2023-04-05T04:47:00.878Z,92767.00
2023-04-05T04:47:59.936Z,92767.00
2023-04-05T04:48:59.857Z,92763.00
2023-04-05T04:49:59.846Z,92767.00
2023-04-05T04:50:59.865Z,92767.00
2023-04-05T04:51:59.792Z,92765.00
2023-04-05T04:52:59.769Z,92767.00
2023-04-05T04:53:59.761Z,92763.00
2023-04-05T04:54:59.738Z,92765.00
2023-04-05T04:56:00.373Z,92763.00
2023-04-05T04:56:59.683Z,92763.00
2023-04-05T04:57:59.663Z,92765.00
2023-04-05T04:58:59.637Z,92765.00
2023-04-05T04:59:59.609Z,92763.00
2023-04-05T05:00:59.644Z,92765.00
2023-04-05T05:01:59.582Z,92763.00
2023-04-05T05:02:59.690Z,92767.00
2023-04-05T05:03:59.594Z,92767.00
2023-04-05T05:04:59.529Z,92769.00
2023-04-05T05:05:59.558Z,92767.00
2023-04-05T05:06:59.488Z,92767.00
2023-04-05T05:07:59.479Z,92769.00
2023-04-05T05:08:59.506Z,92769.00
2023-04-05T05:09:59.451Z,92771.00
2023-04-05T05:10:59.414Z,92769.00
2023-04-05T05:11:59.464Z,92771.00
2023-04-05T05:12:59.421Z,92771.00
2023-04-05T05:13:59.460Z,92771.00
2023-04-05T05:14:59.462Z,92773.00
2023-04-05T05:15:59.428Z,92771.00
2023-04-05T05:16:59.481Z,92771.00
2023-04-05T05:17:59.495Z,92771.00
2023-04-05T05:18:59.336Z,92767.00
2023-04-05T05:19:59.312Z,92769.00
2023-04-05T05:20:59.292Z,92767.00
2023-04-05T05:21:59.276Z,92767.00
2023-04-05T05:22:59.254Z,92765.00
2023-04-05T05:23:59.255Z,92767.00
2023-04-05T05:24:59.273Z,92763.00
2023-04-05T05:25:59.209Z,92765.00
2023-04-05T05:26:59.178Z,92765.00
2023-04-05T05:27:59.128Z,92767.00
2023-04-05T05:28:59.104Z,92769.00
2023-04-05T05:29:59.081Z,92769.00
2023-04-05T05:30:59.121Z,92767.00
2023-04-05T05:31:59.040Z,92767.00
2023-04-05T05:32:59.028Z,92767.00
2023-04-05T05:33:59.066Z,92767.00
2023-04-05T05:34:58.970Z,92771.00
2023-04-05T05:35:58.951Z,92769.00
2023-04-05T05:36:59.009Z,92767.00
2023-04-05T05:37:58.914Z,92771.00
2023-04-05T05:38:58.901Z,92769.00
2023-04-05T05:39:58.857Z,92767.00
2023-04-05T05:40:58.822Z,92769.00
2023-04-05T05:41:58.811Z,92771.00
2023-04-05T05:42:58.780Z,92775.00
2023-04-05T05:43:58.754Z,92773.00
2023-04-05T05:44:58.754Z,92777.00
2023-04-05T05:45:58.724Z,92773.00
2023-04-05T05:46:58.700Z,92775.00
2023-04-05T05:47:58.720Z,92775.00
2023-04-05T05:48:58.673Z,92775.00
2023-04-05T05:49:58.910Z,92777.00
2023-04-05T05:50:58.621Z,92775.00
2023-04-05T05:51:58.610Z,92777.00
2023-04-05T05:53:00.311Z,92779.00
2023-04-05T05:53:58.546Z,92777.00
2023-04-05T05:54:58.582Z,92779.00
2023-04-05T05:55:58.484Z,92781.00
2023-04-05T05:56:58.456Z,92779.00
2023-04-05T05:57:58.419Z,92781.00
2023-04-05T05:58:58.389Z,92781.00
2023-04-05T05:59:58.355Z,92781.00
2023-04-05T06:00:58.333Z,92781.00
2023-04-05T06:01:58.301Z,92777.00
2023-04-05T06:02:58.320Z,92781.00
2023-04-05T06:03:58.358Z,92783.00
2023-04-05T06:04:58.381Z,92781.00
2023-04-05T06:05:58.189Z,92781.00
2023-04-05T06:06:58.228Z,92781.00
2023-04-05T06:07:58.128Z,92781.00
2023-04-05T06:08:58.115Z,92783.00
2023-04-05T06:09:58.081Z,92783.00
2023-04-05T06:10:58.053Z,92783.00
2023-04-05T06:11:58.022Z,92783.00
2023-04-05T06:12:57.989Z,92785.00
2023-04-05T06:13:57.947Z,92783.00
2023-04-05T06:14:57.933Z,92781.00
2023-04-05T06:15:57.952Z,92783.00
2023-04-05T06:16:57.878Z,92779.00
2023-04-05T06:17:57.939Z,92781.00
2023-04-05T06:18:57.814Z,92777.00
2023-04-05T06:19:57.791Z,92777.00
2023-04-05T06:20:57.768Z,92779.00
2023-04-05T06:21:57.736Z,92779.00
2023-04-05T06:22:58.413Z,92777.00
2023-04-05T06:23:57.695Z,92777.00
2023-04-05T06:24:57.670Z,92777.00
2023-04-05T06:25:57.638Z,92779.00
2023-04-05T06:26:57.613Z,92777.00
2023-04-05T06:27:57.600Z,92773.00
2023-04-05T06:28:57.600Z,92773.00
2023-04-05T06:29:57.517Z,92773.00
2023-04-05T06:30:57.484Z,92775.00
2023-04-05T06:31:58.485Z,92775.00
2023-04-05T06:32:57.530Z,92773.00
2023-04-05T06:33:57.398Z,92773.00
2023-04-05T06:34:57.365Z,92775.00
2023-04-05T06:35:57.367Z,92775.00
2023-04-05T06:36:57.306Z,92777.00
2023-04-05T06:37:57.265Z,92779.00
2023-04-05T06:38:57.257Z,92777.00
2023-04-05T06:39:57.200Z,92777.00
2023-04-05T06:40:57.152Z,92777.00
2023-04-05T06:41:57.119Z,92775.00
2023-04-05T06:42:57.066Z,92775.00
2023-04-05T06:43:57.035Z,92773.00
2023-04-05T06:44:56.975Z,92771.00
2023-04-05T06:45:57.027Z,92771.00
2023-04-05T06:46:56.877Z,92769.00
2023-04-05T06:47:56.894Z,92771.00
2023-04-05T06:48:56.785Z,92769.00
2023-04-05T06:49:56.734Z,92769.00
2023-04-05T06:50:56.689Z,92769.00
2023-04-05T06:51:56.651Z,92767.00
2023-04-05T06:52:56.828Z,92765.00
2023-04-05T06:53:56.567Z,92761.00
2023-04-05T06:54:56.525Z,92759.00
2023-04-05T06:55:57.420Z,92759.00
2023-04-05T06:56:56.410Z,92757.00
2023-04-05T06:57:56.368Z,92753.00
2023-04-05T06:58:56.342Z,92753.00
2023-04-05T06:59:56.278Z,92753.00
2023-04-05T07:00:56.266Z,92751.00
2023-04-05T07:01:56.282Z,92751.00
2023-04-05T07:02:56.221Z,92751.00
2023-04-05T07:03:56.122Z,92749.00
2023-04-05T07:04:56.126Z,92749.00
2023-04-05T07:05:56.019Z,92749.00
2023-04-05T07:06:55.987Z,92749.00
2023-04-05T07:07:55.942Z,92745.00
2023-04-05T07:08:55.919Z,92747.00
2023-04-05T07:09:55.864Z,92745.00
2023-04-05T07:10:55.830Z,92743.00
2023-04-05T07:11:55.753Z,92742.00
2023-04-05T07:12:55.709Z,92740.00
2023-04-05T07:13:55.669Z,92742.00
2023-04-05T07:14:55.613Z,92738.00
2023-04-05T07:15:55.575Z,92736.00
2023-04-05T07:16:55.523Z,92734.00
2023-04-05T07:17:55.470Z,92736.00
2023-04-05T07:18:55.928Z,92738.00
2023-04-05T07:19:55.384Z,92734.00
2023-04-05T07:20:55.381Z,92736.00
2023-04-05T07:21:55.361Z,92736.00
2023-04-05T07:22:55.359Z,92736.00
2023-04-05T07:23:55.365Z,92734.00
2023-04-05T07:24:55.371Z,92730.00
2023-04-05T07:25:55.377Z,92730.00
2023-04-05T07:26:55.393Z,92724.00
2023-04-05T07:27:55.407Z,92724.00
2023-04-05T07:28:55.431Z,92724.00
2023-04-05T07:29:55.447Z,92724.00
2023-04-05T07:30:55.464Z,92724.00
2023-04-05T07:31:55.537Z,92724.00
2023-04-05T07:32:55.513Z,92724.00
2023-04-05T07:33:55.523Z,92722.00
2023-04-05T07:34:55.507Z,92722.00
2023-04-05T07:35:55.558Z,92724.00
2023-04-05T07:36:55.528Z,92722.00
2023-04-05T07:37:55.540Z,92726.00
2023-04-05T07:38:55.571Z,92722.00
2023-04-05T07:39:55.565Z,92724.00
2023-04-05T07:40:55.584Z,92722.00
2023-04-05T07:41:55.591Z,92720.00
2023-04-05T07:42:55.595Z,92718.00
2023-04-05T07:43:55.605Z,92718.00
2023-04-05T07:44:55.634Z,92718.00
2023-04-05T07:45:55.675Z,92716.00
2023-04-05T07:46:55.711Z,92714.00
2023-04-05T07:47:55.674Z,92716.00
2023-04-05T07:48:55.635Z,92716.00
2023-04-05T07:49:55.628Z,92718.00
2023-04-05T07:50:55.634Z,92716.00
2023-04-05T07:51:55.623Z,92714.00
2023-04-05T07:52:55.639Z,92716.00
2023-04-05T07:53:55.624Z,92716.00
2023-04-05T07:54:55.622Z,92716.00
2023-04-05T07:55:55.619Z,92716.00
2023-04-05T07:56:55.625Z,92712.00
2023-04-05T07:57:55.604Z,92712.00
2023-04-05T07:58:55.638Z,92710.00
2023-04-05T07:59:55.593Z,92708.00
2023-04-05T08:00:55.584Z,92708.00
2023-04-05T08:01:59.254Z,92708.00
2023-04-05T08:03:55.551Z,92706.00
2023-04-05T08:04:55.433Z,92706.00
2023-04-05T08:05:55.350Z,92706.00
2023-04-05T08:06:55.315Z,92706.00
2023-04-05T08:07:55.235Z,92706.00
2023-04-05T08:08:55.185Z,92706.00
2023-04-05T08:09:55.147Z,92704.00
2023-04-05T08:10:55.085Z,92702.00
2023-04-05T08:11:55.025Z,92702.00
2023-04-05T08:12:54.984Z,92702.00
2023-04-05T08:13:54.922Z,92702.00
2023-04-05T08:14:54.869Z,92700.00
2023-04-05T08:15:54.929Z,92695.00
2023-04-05T08:16:54.753Z,92693.00
2023-04-05T08:17:54.694Z,92695.00
2023-04-05T08:18:54.646Z,92695.00
2023-04-05T08:19:55.453Z,92695.00
2023-04-05T08:20:54.562Z,92691.00
2023-04-05T08:21:54.520Z,92691.00
2023-04-05T08:22:54.492Z,92691.00
2023-04-05T08:23:54.454Z,92689.00
2023-04-05T08:24:54.450Z,92689.00
2023-04-05T08:25:54.382Z,92687.00
2023-04-05T08:26:54.340Z,92687.00
2023-04-05T08:27:54.305Z,92685.00
2023-04-05T08:28:54.278Z,92685.00
2023-04-05T08:29:54.235Z,92685.00
2023-04-05T08:30:54.201Z,92683.00
2023-04-05T08:31:54.285Z,92681.00
2023-04-05T08:32:54.217Z,92685.00
2023-04-05T08:33:54.068Z,92683.00
2023-04-05T08:34:54.040Z,92683.00
2023-04-05T08:35:54.025Z,92681.00
2023-04-05T08:36:54.457Z,92679.00
2023-04-05T08:37:53.930Z,92681.00
2023-04-05T08:38:53.909Z,92677.00
2023-04-05T08:39:53.850Z,92675.00
2023-04-05T08:40:53.783Z,92673.00
2023-04-05T08:41:53.748Z,92671.00
2023-04-05T08:42:53.697Z,92671.00
2023-04-05T08:43:53.661Z,92671.00
2023-04-05T08:44:53.606Z,92669.00
2023-04-05T08:45:53.670Z,92669.00
2023-04-05T08:46:53.504Z,92667.00
2023-04-05T08:47:53.497Z,92665.00
2023-04-05T08:48:53.396Z,92667.00
2023-04-05T08:49:53.351Z,92663.00
2023-04-05T08:50:53.301Z,92661.00
2023-04-05T08:51:53.252Z,92663.00
2023-04-05T08:52:53.210Z,92659.00
2023-04-05T08:53:53.163Z,92659.00
2023-04-05T08:54:53.106Z,92661.00
2023-04-05T08:55:53.050Z,92657.00
2023-04-05T08:56:52.995Z,92657.00
2023-04-05T08:57:52.938Z,92657.00
2023-04-05T08:58:52.884Z,92651.00
2023-04-05T08:59:52.811Z,92651.00
2023-04-05T09:00:52.790Z,92649.00
2023-04-05T09:01:52.710Z,92649.00
2023-04-05T09:02:52.775Z,92648.00
2023-04-05T09:03:52.619Z,92646.00
2023-04-05T09:04:52.542Z,92649.00
2023-04-05T09:05:52.488Z,92648.00
2023-04-05T09:06:52.478Z,92649.00
2023-04-05T09:07:52.372Z,92648.00
2023-04-05T09:08:52.370Z,92644.00
2023-04-05T09:09:52.265Z,92638.00
2023-04-05T09:10:52.204Z,92640.00
2023-04-05T09:11:52.135Z,92638.00
2023-04-05T09:12:53.199Z,92636.00
2023-04-05T09:13:52.027Z,92640.00
2023-04-05T09:14:51.985Z,92638.00
2023-04-05T09:15:51.927Z,92638.00
2023-04-05T09:16:51.913Z,92634.00
2023-04-05T09:17:51.825Z,92632.00
2023-04-05T09:18:51.769Z,92636.00
2023-04-05T09:19:51.732Z,92628.00
2023-04-05T09:20:51.639Z,92630.00
2023-04-05T09:21:51.636Z,92630.00
2023-04-05T09:22:51.523Z,92628.00
2023-04-05T09:23:52.396Z,92626.00
2023-04-05T09:24:51.990Z,92624.00
2023-04-05T09:25:51.360Z,92624.00
2023-04-05T09:26:51.294Z,92622.00
2023-04-05T09:27:51.997Z,92630.00
2023-04-05T09:28:51.177Z,92626.00
2023-04-05T09:29:51.112Z,92622.00
2023-04-05T09:30:51.052Z,92620.00
2023-04-05T09:31:51.028Z,92618.00
2023-04-05T09:32:50.986Z,92616.00
2023-04-05T09:33:50.855Z,92616.00
2023-04-05T09:34:53.382Z,92616.00
2023-04-05T09:35:50.744Z,92616.00
2023-04-05T09:36:50.659Z,92610.00
2023-04-05T09:37:50.685Z,92612.00
2023-04-05T09:38:50.530Z,92608.00
2023-04-05T09:39:50.449Z,92608.00
2023-04-05T09:40:50.376Z,92608.00
2023-04-05T09:41:50.348Z,92606.00
2023-04-05T09:42:50.249Z,92606.00
2023-04-05T09:43:50.173Z,92606.00
2023-04-05T09:44:50.500Z,92602.00
2023-04-05T09:45:50.075Z,92606.00
2023-04-05T09:46:49.978Z,92602.00
2023-04-05T09:47:50.292Z,92602.00
2023-04-05T09:48:50.511Z,92604.00
2023-04-05T09:49:49.813Z,92600.00
2023-04-05T09:50:49.717Z,92598.00
2023-04-05T09:51:49.644Z,92598.00
2023-04-05T09:52:49.589Z,92598.00
2023-04-05T09:53:49.529Z,92593.00
2023-04-05T09:54:49.451Z,92594.00
2023-04-05T09:55:49.384Z,92591.00
2023-04-05T09:56:49.315Z,92591.00
2023-04-05T09:57:49.252Z,92591.00
2023-04-05T09:58:49.209Z,92587.00
2023-04-05T09:59:49.122Z,92589.00
2023-04-05T10:00:49.073Z,92577.00
2023-04-05T10:01:49.005Z,92579.00
2023-04-05T10:02:48.997Z,92573.00
2023-04-05T10:03:48.969Z,92575.00
2023-04-05T10:04:48.790Z,92571.00
2023-04-05T10:05:48.730Z,92571.00
2023-04-05T10:06:48.789Z,92573.00
2023-04-05T10:07:48.592Z,92573.00
2023-04-05T10:08:48.528Z,92573.00
2023-04-05T10:09:48.509Z,92569.00
2023-04-05T10:10:48.464Z,92569.00
2023-04-05T10:11:48.344Z,92569.00
2023-04-05T10:12:48.264Z,92563.00
2023-04-05T10:13:48.196Z,92561.00
2023-04-05T10:14:48.137Z,92559.00
2023-04-05T10:15:48.092Z,92557.00
2023-04-05T10:16:48.113Z,92557.00
2023-04-05T10:17:47.979Z,92552.00
2023-04-05T10:18:48.500Z,92556.00
2023-04-05T10:19:47.816Z,92552.00
2023-04-05T10:20:47.779Z,92550.00
2023-04-05T10:21:47.706Z,92552.00
2023-04-05T10:22:47.649Z,92550.00
2023-04-05T10:23:47.584Z,92548.00
2023-04-05T10:24:47.525Z,92546.00
2023-04-05T10:25:47.468Z,92542.00
2023-04-05T10:26:47.410Z,92540.00
2023-04-05T10:27:47.361Z,92540.00
2023-04-05T10:28:47.280Z,92540.00
2023-04-05T10:29:47.241Z,92538.00
2023-04-05T10:30:47.160Z,92540.00
2023-04-05T10:31:47.166Z,92538.00
2023-04-05T10:32:47.201Z,92536.00
2023-04-05T10:33:47.209Z,92538.00
2023-04-05T10:34:46.934Z,92538.00
2023-04-05T10:35:46.924Z,92534.00
2023-04-05T10:36:46.791Z,92534.00
2023-04-05T10:37:46.792Z,92534.00
2023-04-05T10:38:46.670Z,92536.00
2023-04-05T10:39:46.657Z,92526.00
2023-04-05T10:40:46.605Z,92530.00
2023-04-05T10:41:46.495Z,92528.00
2023-04-05T10:42:46.435Z,92526.00
2023-04-05T10:43:46.349Z,92528.00
2023-04-05T10:44:46.384Z,92524.00
2023-04-05T10:45:46.390Z,92524.00
2023-04-05T10:46:46.239Z,92526.00
2023-04-05T10:47:46.201Z,92524.00
2023-04-05T10:48:46.054Z,92524.00
2023-04-05T10:49:45.979Z,92524.00
2023-04-05T10:50:45.938Z,92520.00
2023-04-05T10:51:45.869Z,92520.00
2023-04-05T10:52:45.800Z,92520.00
2023-04-05T10:53:46.106Z,92516.00
2023-04-05T10:54:45.656Z,92520.00
2023-04-05T10:55:45.583Z,92518.00
2023-04-05T10:56:45.577Z,92516.00
2023-04-05T10:57:45.469Z,92516.00
2023-04-05T10:58:45.437Z,92514.00
2023-04-05T10:59:45.528Z,92512.00
2023-04-05T11:00:45.257Z,92510.00
2023-04-05T11:01:45.211Z,92512.00
2023-04-05T11:02:45.195Z,92516.00
2023-04-05T11:03:45.164Z,92514.00
2023-04-05T11:04:45.076Z,92508.00
2023-04-05T11:05:44.933Z,92510.00
2023-04-05T11:06:44.862Z,92512.00
2023-04-05T11:07:45.525Z,92506.00
2023-04-05T11:08:45.512Z,92510.00
2023-04-05T11:09:44.698Z,92508.00
2023-04-05T11:10:45.027Z,92510.00
2023-04-05T11:11:44.567Z,92508.00
2023-04-05T11:12:44.518Z,92506.00
2023-04-05T11:13:47.177Z,92502.00
2023-04-05T11:14:44.395Z,92504.00
2023-04-05T11:15:45.101Z,92501.00
2023-04-05T11:16:44.390Z,92502.00
2023-04-05T11:17:44.269Z,92499.00
2023-04-05T11:18:44.168Z,92497.00
2023-04-05T11:19:45.026Z,92497.00
2023-04-05T11:20:44.200Z,92497.00
2023-04-05T11:21:43.958Z,92495.00
2023-04-05T11:22:43.895Z,92495.00
2023-04-05T11:23:43.844Z,92493.00
2023-04-05T11:24:43.776Z,92493.00
2023-04-05T11:25:43.742Z,92493.00
2023-04-05T11:26:43.661Z,92485.00
2023-04-05T11:27:44.532Z,92487.00
2023-04-05T11:28:43.547Z,92485.00
2023-04-05T11:29:43.491Z,92481.00
2023-04-05T11:30:43.601Z,92483.00
2023-04-05T11:31:43.401Z,92475.00
2023-04-05T11:32:43.638Z,92475.00
2023-04-05T11:33:43.907Z,92477.00
2023-04-05T11:34:43.187Z,92473.00
2023-04-05T11:35:43.163Z,92473.00
2023-04-05T11:36:43.050Z,92469.00
2023-04-05T11:37:43.059Z,92469.00
2023-04-05T11:38:42.936Z,92467.00
2023-04-05T11:39:42.868Z,92467.00
2023-04-05T11:40:43.073Z,92461.00
2023-04-05T11:41:42.815Z,92461.00
2023-04-05T11:42:42.692Z,92463.00
2023-04-05T11:43:42.688Z,92465.00
2023-04-05T11:44:42.574Z,92461.00
2023-04-05T11:45:42.531Z,92457.00